Oak Island, North Carolina
Current Conditions -  °F | °C
As of 3:35 PM on Thursday 29 Jan 2015 (Local Time) from KSUT Reporting Station
Clear Clear  
Wind Chill:   Ceiling: Unl
Heat Index:   Visibility: 10mi
Dew Point: -3°   Wind: 3mph
Humidity: 45%   Direction: 210°SSW
Pressure: 30.25"   Gusts: NA
Location:  33.92°N, 78.16°W
Report Text: KSUT 292035Z AUTO 21003KT 10SM CLR 09/M03 A3025 RMK AO2 T00871028
Loading
Personal Weather Stations






























Interactive Weather Map New forecast layout! Learn more

10-Day Weather Forecast

Advertisements
Track Severe Weather on mobile